sensor_id;sensor_type;location;lat;lon;timestamp;P1;durP1;ratioP1;P2;durP2;ratioP2
46322;SDS011;32044;52.386;13.278;2023-04-01T00:01:02;3.97;;;2.80;;
46322;SDS011;32044;52.386;13.278;2023-04-01T00:03:30;2.90;;;2.40;;
46322;SDS011;32044;52.386;13.278;2023-04-01T00:05:59;5.70;;;2.65;;
46322;SDS011;32044;52.386;13.278;2023-04-01T00:08:29;4.15;;;2.33;;
46322;SDS011;32044;52.386;13.278;2023-04-01T00:10:57;4.50;;;2.40;;
46322;SDS011;32044;52.386;13.278;2023-04-01T00:13:25;5.32;;;2.58;;
46322;SDS011;32044;52.386;13.278;2023-04-01T00:15:53;3.22;;;2.30;;
46322;SDS011;32044;52.386;13.278;2023-04-01T00:18:22;3.25;;;2.58;;
46322;SDS011;32044;52.386;13.278;2023-04-01T00:20:51;4.22;;;2.30;;
46322;SDS011;32044;52.386;13.278;2023-04-01T00:23:19;3.78;;;2.30;;
46322;SDS011;32044;52.386;13.278;2023-04-01T00:25:48;4.07;;;2.03;;
46322;SDS011;32044;52.386;13.278;2023-04-01T00:28:17;5.88;;;1.98;;
46322;SDS011;32044;52.386;13.278;2023-04-01T00:30:45;4.78;;;2.42;;
46322;SDS011;32044;52.386;13.278;2023-04-01T00:33:13;3.20;;;2.17;;
46322;SDS011;32044;52.386;13.278;2023-04-01T00:35:41;2.97;;;1.73;;
46322;SDS011;32044;52.386;13.278;2023-04-01T00:38:08;2.92;;;2.00;;
46322;SDS011;32044;52.386;13.278;2023-04-01T00:40:38;4.50;;;1.90;;
46322;SDS011;32044;52.386;13.278;2023-04-01T00:43:11;2.70;;;1.83;;
46322;SDS011;32044;52.386;13.278;2023-04-01T00:45:40;4.75;;;2.30;;
46322;SDS011;32044;52.386;13.278;2023-04-01T00:48:09;3.28;;;2.05;;
46322;SDS011;32044;52.386;13.278;2023-04-01T00:50:38;7.43;;;2.10;;
46322;SDS011;32044;52.386;13.278;2023-04-01T00:53:08;5.97;;;2.47;;
46322;SDS011;32044;52.386;13.278;2023-04-01T00:55:36;4.63;;;2.28;;
46322;SDS011;32044;52.386;13.278;2023-04-01T00:58:07;4.85;;;1.98;;
46322;SDS011;32044;52.386;13.278;2023-04-01T01:00:38;1.95;;;1.42;;
46322;SDS011;32044;52.386;13.278;2023-04-01T01:03:06;3.40;;;2.42;;
46322;SDS011;32044;52.386;13.278;2023-04-01T01:05:50;3.17;;;2.40;;
46322;SDS011;32044;52.386;13.278;2023-04-01T01:09:01;3.05;;;2.20;;
46322;SDS011;32044;52.386;13.278;2023-04-01T01:11:35;8.40;;;2.85;;
46322;SDS011;32044;52.386;13.278;2023-04-01T01:14:10;5.47;;;2.80;;
46322;SDS011;32044;52.386;13.278;2023-04-01T01:16:48;4.80;;;2.17;;
46322;SDS011;32044;52.386;13.278;2023-04-01T01:19:26;6.78;;;2.15;;
46322;SDS011;32044;52.386;13.278;2023-04-01T01:22:10;7.72;;;2.60;;
46322;SDS011;32044;52.386;13.278;2023-04-01T01:24:51;4.57;;;2.50;;
46322;SDS011;32044;52.386;13.278;2023-04-01T01:27:23;6.55;;;2.70;;
46322;SDS011;32044;52.386;13.278;2023-04-01T01:29:57;4.20;;;2.28;;
46322;SDS011;32044;52.386;13.278;2023-04-01T01:32:37;3.45;;;2.40;;
46322;SDS011;32044;52.386;13.278;2023-04-01T01:35:14;4.68;;;2.30;;
46322;SDS011;32044;52.386;13.278;2023-04-01T01:37:44;4.07;;;2.38;;
46322;SDS011;32044;52.386;13.278;2023-04-01T01:40:13;3.88;;;2.08;;
46322;SDS011;32044;52.386;13.278;2023-04-01T01:42:43;4.18;;;2.40;;
46322;SDS011;32044;52.386;13.278;2023-04-01T01:45:14;4.80;;;2.45;;
46322;SDS011;32044;52.386;13.278;2023-04-01T01:47:44;4.25;;;2.30;;
46322;SDS011;32044;52.386;13.278;2023-04-01T01:50:12;2.90;;;2.08;;
46322;SDS011;32044;52.386;13.278;2023-04-01T01:52:42;3.42;;;2.45;;
46322;SDS011;32044;52.386;13.278;2023-04-01T01:55:24;5.80;;;2.80;;
46322;SDS011;32044;52.386;13.278;2023-04-01T01:57:55;4.40;;;2.30;;
46322;SDS011;32044;52.386;13.278;2023-04-01T02:00:26;4.25;;;2.65;;
46322;SDS011;32044;52.386;13.278;2023-04-01T02:02:54;4.32;;;2.70;;
46322;SDS011;32044;52.386;13.278;2023-04-01T02:05:24;4.65;;;2.42;;
46322;SDS011;32044;52.386;13.278;2023-04-01T02:07:54;5.72;;;2.20;;
46322;SDS011;32044;52.386;13.278;2023-04-01T02:10:25;4.10;;;2.13;;
46322;SDS011;32044;52.386;13.278;2023-04-01T02:12:53;5.45;;;2.60;;
46322;SDS011;32044;52.386;13.278;2023-04-01T02:15:25;3.85;;;1.63;;
46322;SDS011;32044;52.386;13.278;2023-04-01T02:17:53;5.88;;;2.60;;
46322;SDS011;32044;52.386;13.278;2023-04-01T02:20:24;3.95;;;2.20;;
46322;SDS011;32044;52.386;13.278;2023-04-01T02:22:54;3.13;;;2.10;;
46322;SDS011;32044;52.386;13.278;2023-04-01T02:25:25;5.28;;;2.40;;
46322;SDS011;32044;52.386;13.278;2023-04-01T02:27:55;5.03;;;2.95;;
46322;SDS011;32044;52.386;13.278;2023-04-01T02:30:24;6.25;;;2.47;;
46322;SDS011;32044;52.386;13.278;2023-04-01T02:32:53;5.63;;;2.15;;
46322;SDS011;32044;52.386;13.278;2023-04-01T02:35:22;5.68;;;2.50;;
46322;SDS011;32044;52.386;13.278;2023-04-01T02:37:52;3.13;;;2.40;;
46322;SDS011;32044;52.386;13.278;2023-04-01T02:40:20;5.93;;;2.47;;
46322;SDS011;32044;52.386;13.278;2023-04-01T02:42:48;4.72;;;2.50;;
46322;SDS011;32044;52.386;13.278;2023-04-01T02:45:16;5.18;;;2.20;;
46322;SDS011;32044;52.386;13.278;2023-04-01T02:47:44;2.58;;;1.88;;
46322;SDS011;32044;52.386;13.278;2023-04-01T02:50:11;4.90;;;2.40;;
46322;SDS011;32044;52.386;13.278;2023-04-01T02:52:39;6.22;;;2.40;;
46322;SDS011;32044;52.386;13.278;2023-04-01T02:55:08;4.05;;;2.53;;
46322;SDS011;32044;52.386;13.278;2023-04-01T02:57:36;7.15;;;2.80;;
46322;SDS011;32044;52.386;13.278;2023-04-01T03:00:04;10.32;;;2.97;;
46322;SDS011;32044;52.386;13.278;2023-04-01T03:02:37;11.20;;;2.85;;
46322;SDS011;32044;52.386;13.278;2023-04-01T03:05:05;6.15;;;2.92;;
46322;SDS011;32044;52.386;13.278;2023-04-01T03:07:33;5.22;;;3.05;;
46322;SDS011;32044;52.386;13.278;2023-04-01T03:10:01;8.13;;;3.10;;
46322;SDS011;32044;52.386;13.278;2023-04-01T03:12:30;6.18;;;2.80;;
46322;SDS011;32044;52.386;13.278;2023-04-01T03:14:58;8.80;;;2.63;;
46322;SDS011;32044;52.386;13.278;2023-04-01T03:17:36;4.45;;;2.17;;
46322;SDS011;32044;52.386;13.278;2023-04-01T03:20:05;6.78;;;2.50;;
46322;SDS011;32044;52.386;13.278;2023-04-01T03:22:34;8.57;;;3.20;;
46322;SDS011;32044;52.386;13.278;2023-04-01T03:25:02;6.38;;;2.75;;
46322;SDS011;32044;52.386;13.278;2023-04-01T03:27:31;8.35;;;2.65;;
46322;SDS011;32044;52.386;13.278;2023-04-01T03:29:59;8.57;;;2.65;;
46322;SDS011;32044;52.386;13.278;2023-04-01T03:32:27;8.93;;;2.72;;
46322;SDS011;32044;52.386;13.278;2023-04-01T03:34:54;7.57;;;3.15;;
46322;SDS011;32044;52.386;13.278;2023-04-01T03:37:22;9.60;;;2.88;;
46322;SDS011;32044;52.386;13.278;2023-04-01T03:39:50;6.43;;;2.92;;
46322;SDS011;32044;52.386;13.278;2023-04-01T03:42:17;7.38;;;3.08;;
46322;SDS011;32044;52.386;13.278;2023-04-01T03:44:46;9.30;;;3.50;;
46322;SDS011;32044;52.386;13.278;2023-04-01T03:47:14;9.43;;;3.05;;
46322;SDS011;32044;52.386;13.278;2023-04-01T03:49:41;6.63;;;3.08;;
46322;SDS011;32044;52.386;13.278;2023-04-01T03:52:09;7.00;;;2.95;;
46322;SDS011;32044;52.386;13.278;2023-04-01T03:54:37;5.38;;;3.05;;
46322;SDS011;32044;52.386;13.278;2023-04-01T03:57:05;5.35;;;2.83;;
46322;SDS011;32044;52.386;13.278;2023-04-01T03:59:33;9.57;;;2.70;;
46322;SDS011;32044;52.386;13.278;2023-04-01T04:02:11;7.35;;;2.88;;
46322;SDS011;32044;52.386;13.278;2023-04-01T04:04:39;8.95;;;2.90;;
46322;SDS011;32044;52.386;13.278;2023-04-01T04:07:07;9.70;;;3.13;;
46322;SDS011;32044;52.386;13.278;2023-04-01T04:09:34;6.00;;;2.92;;
46322;SDS011;32044;52.386;13.278;2023-04-01T04:12:02;6.20;;;2.92;;
46322;SDS011;32044;52.386;13.278;2023-04-01T04:14:31;4.95;;;2.60;;
46322;SDS011;32044;52.386;13.278;2023-04-01T04:16:59;4.13;;;2.95;;
46322;SDS011;32044;52.386;13.278;2023-04-01T04:19:30;6.47;;;3.13;;
46322;SDS011;32044;52.386;13.278;2023-04-01T04:21:59;6.95;;;2.97;;
46322;SDS011;32044;52.386;13.278;2023-04-01T04:24:27;5.38;;;2.80;;
46322;SDS011;32044;52.386;13.278;2023-04-01T04:26:55;10.82;;;2.80;;
46322;SDS011;32044;52.386;13.278;2023-04-01T04:29:22;5.18;;;2.55;;
46322;SDS011;32044;52.386;13.278;2023-04-01T04:31:50;12.70;;;2.92;;
46322;SDS011;32044;52.386;13.278;2023-04-01T04:34:17;8.00;;;2.95;;
46322;SDS011;32044;52.386;13.278;2023-04-01T04:36:46;6.63;;;2.90;;
46322;SDS011;32044;52.386;13.278;2023-04-01T04:39:14;5.45;;;2.80;;
46322;SDS011;32044;52.386;13.278;2023-04-01T04:41:42;5.55;;;2.47;;
46322;SDS011;32044;52.386;13.278;2023-04-01T04:44:09;5.18;;;2.53;;
46322;SDS011;32044;52.386;13.278;2023-04-01T04:46:37;8.07;;;2.60;;
46322;SDS011;32044;52.386;13.278;2023-04-01T04:49:05;11.23;;;3.60;;
46322;SDS011;32044;52.386;13.278;2023-04-01T04:51:33;8.07;;;3.30;;
46322;SDS011;32044;52.386;13.278;2023-04-01T04:54:03;7.03;;;3.33;;
46322;SDS011;32044;52.386;13.278;2023-04-01T04:56:31;7.32;;;3.75;;
46322;SDS011;32044;52.386;13.278;2023-04-01T04:58:59;12.13;;;3.70;;
46322;SDS011;32044;52.386;13.278;2023-04-01T05:01:27;8.50;;;3.45;;
46322;SDS011;32044;52.386;13.278;2023-04-01T05:03:55;7.95;;;3.30;;
46322;SDS011;32044;52.386;13.278;2023-04-01T05:06:22;10.68;;;3.85;;
46322;SDS011;32044;52.386;13.278;2023-04-01T05:08:51;7.63;;;3.17;;
46322;SDS011;32044;52.386;13.278;2023-04-01T05:11:20;8.68;;;2.92;;
46322;SDS011;32044;52.386;13.278;2023-04-01T05:13:48;8.52;;;3.33;;
46322;SDS011;32044;52.386;13.278;2023-04-01T05:16:17;10.75;;;2.90;;
46322;SDS011;32044;52.386;13.278;2023-04-01T05:18:46;8.95;;;3.17;;
46322;SDS011;32044;52.386;13.278;2023-04-01T05:21:14;8.32;;;3.38;;
46322;SDS011;32044;52.386;13.278;2023-04-01T05:23:42;9.90;;;3.50;;
46322;SDS011;32044;52.386;13.278;2023-04-01T05:26:10;7.28;;;2.97;;
46322;SDS011;32044;52.386;13.278;2023-04-01T05:28:40;6.28;;;2.55;;
46322;SDS011;32044;52.386;13.278;2023-04-01T05:31:08;7.65;;;2.78;;
46322;SDS011;32044;52.386;13.278;2023-04-01T05:33:36;5.53;;;2.60;;
46322;SDS011;32044;52.386;13.278;2023-04-01T05:36:08;6.57;;;2.53;;
46322;SDS011;32044;52.386;13.278;2023-04-01T05:38:36;3.63;;;2.05;;
46322;SDS011;32044;52.386;13.278;2023-04-01T05:41:04;3.22;;;2.10;;
46322;SDS011;32044;52.386;13.278;2023-04-01T05:43:32;4.25;;;2.17;;
46322;SDS011;32044;52.386;13.278;2023-04-01T05:46:04;7.20;;;2.30;;
46322;SDS011;32044;52.386;13.278;2023-04-01T05:48:32;6.90;;;2.90;;
46322;SDS011;32044;52.386;13.278;2023-04-01T05:51:00;5.55;;;2.60;;
46322;SDS011;32044;52.386;13.278;2023-04-01T05:53:28;4.40;;;2.15;;
46322;SDS011;32044;52.386;13.278;2023-04-01T05:55:56;11.07;;;2.90;;
46322;SDS011;32044;52.386;13.278;2023-04-01T05:58:23;6.40;;;2.67;;
46322;SDS011;32044;52.386;13.278;2023-04-01T06:00:51;7.55;;;2.53;;
46322;SDS011;32044;52.386;13.278;2023-04-01T06:03:35;5.13;;;2.35;;
46322;SDS011;32044;52.386;13.278;2023-04-01T06:06:03;6.72;;;2.83;;
46322;SDS011;32044;52.386;13.278;2023-04-01T06:08:31;8.27;;;2.33;;
46322;SDS011;32044;52.386;13.278;2023-04-01T06:11:01;7.18;;;2.55;;
46322;SDS011;32044;52.386;13.278;2023-04-01T06:13:38;7.20;;;2.10;;
46322;SDS011;32044;52.386;13.278;2023-04-01T06:16:12;4.88;;;2.22;;
46322;SDS011;32044;52.386;13.278;2023-04-01T06:18:50;6.03;;;2.10;;
46322;SDS011;32044;52.386;13.278;2023-04-01T06:21:27;6.30;;;2.72;;
46322;SDS011;32044;52.386;13.278;2023-04-01T06:24:07;6.90;;;2.00;;
46322;SDS011;32044;52.386;13.278;2023-04-01T06:26:46;4.80;;;2.00;;
46322;SDS011;32044;52.386;13.278;2023-04-01T06:29:23;6.43;;;2.57;;
46322;SDS011;32044;52.386;13.278;2023-04-01T06:32:13;9.90;;;2.60;;
46322;SDS011;32044;52.386;13.278;2023-04-01T06:38:00;7.95;;;2.28;;
46322;SDS011;32044;52.386;13.278;2023-04-01T06:40:58;6.18;;;2.08;;
46322;SDS011;32044;52.386;13.278;2023-04-01T06:43:50;5.63;;;2.30;;
46322;SDS011;32044;52.386;13.278;2023-04-01T06:46:29;6.45;;;2.28;;
46322;SDS011;32044;52.386;13.278;2023-04-01T06:49:07;7.53;;;2.08;;
46322;SDS011;32044;52.386;13.278;2023-04-01T06:51:49;7.20;;;2.60;;
46322;SDS011;32044;52.386;13.278;2023-04-01T06:54:20;7.35;;;2.25;;
46322;SDS011;32044;52.386;13.278;2023-04-01T06:56:52;10.55;;;2.38;;
46322;SDS011;32044;52.386;13.278;2023-04-01T06:59:24;6.03;;;2.08;;
46322;SDS011;32044;52.386;13.278;2023-04-01T07:01:54;9.60;;;2.40;;
46322;SDS011;32044;52.386;13.278;2023-04-01T07:04:23;6.95;;;2.25;;
46322;SDS011;32044;52.386;13.278;2023-04-01T07:06:55;5.22;;;2.15;;
46322;SDS011;32044;52.386;13.278;2023-04-01T07:09:25;6.40;;;2.33;;
46322;SDS011;32044;52.386;13.278;2023-04-01T07:11:56;6.95;;;2.58;;
46322;SDS011;32044;52.386;13.278;2023-04-01T07:14:29;4.93;;;1.98;;
46322;SDS011;32044;52.386;13.278;2023-04-01T07:16:58;3.60;;;1.95;;
46322;SDS011;32044;52.386;13.278;2023-04-01T07:19:29;3.95;;;1.60;;
46322;SDS011;32044;52.386;13.278;2023-04-01T07:22:01;5.03;;;2.15;;
46322;SDS011;32044;52.386;13.278;2023-04-01T07:24:32;6.20;;;2.10;;
46322;SDS011;32044;52.386;13.278;2023-04-01T07:27:00;3.67;;;1.88;;
46322;SDS011;32044;52.386;13.278;2023-04-01T07:29:28;5.25;;;1.85;;
46322;SDS011;32044;52.386;13.278;2023-04-01T07:31:59;5.00;;;1.90;;
46322;SDS011;32044;52.386;13.278;2023-04-01T07:34:35;4.28;;;1.80;;
46322;SDS011;32044;52.386;13.278;2023-04-01T07:37:10;5.68;;;1.77;;
46322;SDS011;32044;52.386;13.278;2023-04-01T07:39:41;7.65;;;1.85;;
46322;SDS011;32044;52.386;13.278;2023-04-01T07:42:15;5.72;;;1.90;;
46322;SDS011;32044;52.386;13.278;2023-04-01T07:44:47;5.10;;;1.70;;
46322;SDS011;32044;52.386;13.278;2023-04-01T07:47:22;6.47;;;2.33;;
46322;SDS011;32044;52.386;13.278;2023-04-01T07:50:00;6.05;;;1.67;;
46322;SDS011;32044;52.386;13.278;2023-04-01T07:52:35;4.95;;;1.80;;
46322;SDS011;32044;52.386;13.278;2023-04-01T07:55:09;6.78;;;1.52;;
46322;SDS011;32044;52.386;13.278;2023-04-01T07:57:43;5.82;;;2.00;;
46322;SDS011;32044;52.386;13.278;2023-04-01T08:00:17;7.18;;;1.80;;
46322;SDS011;32044;52.386;13.278;2023-04-01T08:02:51;13.55;;;2.17;;
46322;SDS011;32044;52.386;13.278;2023-04-01T08:05:29;8.03;;;2.07;;
46322;SDS011;32044;52.386;13.278;2023-04-01T08:08:03;6.13;;;1.90;;
46322;SDS011;32044;52.386;13.278;2023-04-01T08:10:36;5.97;;;2.15;;
46322;SDS011;32044;52.386;13.278;2023-04-01T08:13:10;5.13;;;2.00;;
46322;SDS011;32044;52.386;13.278;2023-04-01T08:15:44;8.25;;;2.13;;
46322;SDS011;32044;52.386;13.278;2023-04-01T08:18:18;4.15;;;1.77;;
46322;SDS011;32044;52.386;13.278;2023-04-01T08:20:52;6.10;;;1.52;;
46322;SDS011;32044;52.386;13.278;2023-04-01T08:23:24;7.22;;;2.28;;
46322;SDS011;32044;52.386;13.278;2023-04-01T08:25:54;4.68;;;2.13;;
46322;SDS011;32044;52.386;13.278;2023-04-01T08:28:24;6.38;;;1.98;;
46322;SDS011;32044;52.386;13.278;2023-04-01T08:30:55;7.18;;;1.95;;
46322;SDS011;32044;52.386;13.278;2023-04-01T08:33:26;5.78;;;1.60;;
46322;SDS011;32044;52.386;13.278;2023-04-01T08:35:56;5.22;;;1.80;;
46322;SDS011;32044;52.386;13.278;2023-04-01T08:38:28;5.18;;;2.15;;
46322;SDS011;32044;52.386;13.278;2023-04-01T08:40:58;4.72;;;1.23;;
46322;SDS011;32044;52.386;13.278;2023-04-01T08:49:32;6.30;;;1.80;;
46322;SDS011;32044;52.386;13.278;2023-04-01T08:52:11;5.40;;;1.83;;
46322;SDS011;32044;52.386;13.278;2023-04-01T08:54:47;4.80;;;1.60;;
46322;SDS011;32044;52.386;13.278;2023-04-01T08:57:28;4.47;;;1.50;;
46322;SDS011;32044;52.386;13.278;2023-04-01T09:00:07;2.67;;;1.10;;
46322;SDS011;32044;52.386;13.278;2023-04-01T09:02:49;4.63;;;1.48;;
46322;SDS011;32044;52.386;13.278;2023-04-01T09:05:34;4.07;;;1.60;;
46322;SDS011;32044;52.386;13.278;2023-04-01T09:08:08;4.30;;;1.67;;
46322;SDS011;32044;52.386;13.278;2023-04-01T09:10:50;3.97;;;1.67;;
46322;SDS011;32044;52.386;13.278;2023-04-01T09:13:28;5.82;;;1.85;;
46322;SDS011;32044;52.386;13.278;2023-04-01T09:16:06;5.43;;;1.60;;
46322;SDS011;32044;52.386;13.278;2023-04-01T09:18:49;5.28;;;1.67;;
46322;SDS011;32044;52.386;13.278;2023-04-01T09:28:00;4.95;;;1.67;;
46322;SDS011;32044;52.386;13.278;2023-04-01T09:30:33;2.65;;;1.15;;
46322;SDS011;32044;52.386;13.278;2023-04-01T09:33:11;4.47;;;1.42;;
46322;SDS011;32044;52.386;13.278;2023-04-01T09:35:45;2.75;;;1.42;;
46322;SDS011;32044;52.386;13.278;2023-04-01T09:38:19;4.90;;;1.45;;
46322;SDS011;32044;52.386;13.278;2023-04-01T09:40:53;3.25;;;1.63;;
46322;SDS011;32044;52.386;13.278;2023-04-01T09:43:25;4.82;;;1.45;;
46322;SDS011;32044;52.386;13.278;2023-04-01T09:46:10;2.83;;;1.30;;
46322;SDS011;32044;52.386;13.278;2023-04-01T09:48:51;2.63;;;1.38;;
46322;SDS011;32044;52.386;13.278;2023-04-01T09:51:36;3.17;;;2.70;;
46322;SDS011;32044;52.386;13.278;2023-04-01T09:54:13;4.70;;;4.10;;
46322;SDS011;32044;52.386;13.278;2023-04-01T10:00:04;5.78;;;5.18;;
46322;SDS011;32044;52.386;13.278;2023-04-01T10:02:50;7.40;;;5.85;;
46322;SDS011;32044;52.386;13.278;2023-04-01T10:05:36;7.40;;;6.18;;
46322;SDS011;32044;52.386;13.278;2023-04-01T10:08:32;7.68;;;6.85;;
46322;SDS011;32044;52.386;13.278;2023-04-01T10:14:24;8.77;;;6.82;;
46322;SDS011;32044;52.386;13.278;2023-04-01T10:17:14;8.25;;;6.97;;
46322;SDS011;32044;52.386;13.278;2023-04-01T10:20:12;8.27;;;6.88;;
46322;SDS011;32044;52.386;13.278;2023-04-01T10:26:05;8.40;;;7.38;;
46322;SDS011;32044;52.386;13.278;2023-04-01T10:35:03;8.23;;;6.90;;
46322;SDS011;32044;52.386;13.278;2023-04-01T10:40:46;8.32;;;7.30;;
46322;SDS011;32044;52.386;13.278;2023-04-01T10:46:41;11.25;;;9.05;;
46322;SDS011;32044;52.386;13.278;2023-04-01T10:49:24;12.38;;;9.77;;
46322;SDS011;32044;52.386;13.278;2023-04-01T10:52:23;12.93;;;10.18;;
46322;SDS011;32044;52.386;13.278;2023-04-01T10:55:12;12.52;;;10.15;;
46322;SDS011;32044;52.386;13.278;2023-04-01T10:58:02;16.08;;;10.63;;
46322;SDS011;32044;52.386;13.278;2023-04-01T11:00:59;12.93;;;10.60;;
46322;SDS011;32044;52.386;13.278;2023-04-01T11:03:41;14.02;;;11.15;;
46322;SDS011;32044;52.386;13.278;2023-04-01T11:09:32;16.08;;;12.20;;
46322;SDS011;32044;52.386;13.278;2023-04-01T11:15:21;15.75;;;13.02;;
46322;SDS011;32044;52.386;13.278;2023-04-01T11:24:31;13.40;;;11.73;;
46322;SDS011;32044;52.386;13.278;2023-04-01T11:27:09;13.55;;;12.13;;
46322;SDS011;32044;52.386;13.278;2023-04-01T11:29:51;14.40;;;12.30;;
46322;SDS011;32044;52.386;13.278;2023-04-01T11:32:29;13.07;;;11.05;;
46322;SDS011;32044;52.386;13.278;2023-04-01T11:40:20;10.35;;;9.18;;
46322;SDS011;32044;52.386;13.278;2023-04-01T11:42:54;10.25;;;9.25;;
46322;SDS011;32044;52.386;13.278;2023-04-01T11:45:28;10.97;;;9.40;;
46322;SDS011;32044;52.386;13.278;2023-04-01T11:48:17;8.73;;;7.82;;
46322;SDS011;32044;52.386;13.278;2023-04-01T11:50:53;8.85;;;7.78;;
46322;SDS011;32044;52.386;13.278;2023-04-01T11:53:33;9.32;;;7.85;;
46322;SDS011;32044;52.386;13.278;2023-04-01T11:56:14;8.60;;;7.80;;
46322;SDS011;32044;52.386;13.278;2023-04-01T12:01:56;7.63;;;6.93;;
46322;SDS011;32044;52.386;13.278;2023-04-01T12:07:21;6.60;;;5.55;;
46322;SDS011;32044;52.386;13.278;2023-04-01T12:09:58;8.20;;;6.35;;
46322;SDS011;32044;52.386;13.278;2023-04-01T12:12:32;8.05;;;6.90;;
46322;SDS011;32044;52.386;13.278;2023-04-01T12:15:20;9.45;;;7.10;;
46322;SDS011;32044;52.386;13.278;2023-04-01T12:17:52;6.85;;;6.15;;
46322;SDS011;32044;52.386;13.278;2023-04-01T12:20:28;7.40;;;6.07;;
46322;SDS011;32044;52.386;13.278;2023-04-01T12:23:02;7.70;;;6.50;;
46322;SDS011;32044;52.386;13.278;2023-04-01T12:25:45;7.15;;;6.00;;
46322;SDS011;32044;52.386;13.278;2023-04-01T12:28:24;7.78;;;6.05;;
46322;SDS011;32044;52.386;13.278;2023-04-01T12:30:55;8.23;;;6.47;;
46322;SDS011;32044;52.386;13.278;2023-04-01T12:33:35;8.50;;;7.15;;
46322;SDS011;32044;52.386;13.278;2023-04-01T12:36:26;8.43;;;6.43;;
46322;SDS011;32044;52.386;13.278;2023-04-01T12:39:17;9.15;;;7.25;;
46322;SDS011;32044;52.386;13.278;2023-04-01T12:41:53;11.32;;;8.18;;
46322;SDS011;32044;52.386;13.278;2023-04-01T12:44:33;8.40;;;6.78;;
46322;SDS011;32044;52.386;13.278;2023-04-01T12:47:31;10.43;;;7.03;;
46322;SDS011;32044;52.386;13.278;2023-04-01T12:50:23;7.80;;;5.40;;
46322;SDS011;32044;52.386;13.278;2023-04-01T12:53:07;8.68;;;5.80;;
46322;SDS011;32044;52.386;13.278;2023-04-01T12:55:42;8.15;;;6.15;;
46322;SDS011;32044;52.386;13.278;2023-04-01T12:58:17;8.27;;;6.75;;
46322;SDS011;32044;52.386;13.278;2023-04-01T13:04:07;12.30;;;6.93;;
46322;SDS011;32044;52.386;13.278;2023-04-01T13:07:01;7.93;;;6.63;;
46322;SDS011;32044;52.386;13.278;2023-04-01T13:09:40;8.10;;;7.25;;
46322;SDS011;32044;52.386;13.278;2023-04-01T13:12:21;10.27;;;8.40;;
46322;SDS011;32044;52.386;13.278;2023-04-01T13:15:11;14.43;;;9.85;;
46322;SDS011;32044;52.386;13.278;2023-04-01T13:18:04;15.90;;;10.80;;
46322;SDS011;32044;52.386;13.278;2023-04-01T13:20:43;16.77;;;10.88;;
46322;SDS011;32044;52.386;13.278;2023-04-01T13:23:14;13.50;;;9.98;;
46322;SDS011;32044;52.386;13.278;2023-04-01T13:25:53;13.40;;;10.32;;
46322;SDS011;32044;52.386;13.278;2023-04-01T13:28:40;13.73;;;10.00;;
46322;SDS011;32044;52.386;13.278;2023-04-01T13:31:16;17.63;;;12.65;;
46322;SDS011;32044;52.386;13.278;2023-04-01T13:33:55;14.73;;;9.90;;
46322;SDS011;32044;52.386;13.278;2023-04-01T13:36:26;12.82;;;9.80;;
46322;SDS011;32044;52.386;13.278;2023-04-01T13:39:15;13.80;;;8.73;;
46322;SDS011;32044;52.386;13.278;2023-04-01T13:41:55;18.08;;;9.75;;
46322;SDS011;32044;52.386;13.278;2023-04-01T13:44:31;14.82;;;10.20;;
46322;SDS011;32044;52.386;13.278;2023-04-01T13:53:00;20.23;;;13.85;;
46322;SDS011;32044;52.386;13.278;2023-04-01T13:55:55;21.33;;;13.60;;
46322;SDS011;32044;52.386;13.278;2023-04-01T13:58:36;19.98;;;14.90;;
46322;SDS011;32044;52.386;13.278;2023-04-01T14:01:10;20.95;;;15.80;;
46322;SDS011;32044;52.386;13.278;2023-04-01T14:03:44;19.95;;;15.68;;
46322;SDS011;32044;52.386;13.278;2023-04-01T14:06:23;21.38;;;15.40;;
46322;SDS011;32044;52.386;13.278;2023-04-01T14:09:00;16.52;;;12.68;;
46322;SDS011;32044;52.386;13.278;2023-04-01T14:11:39;14.48;;;12.63;;
46322;SDS011;32044;52.386;13.278;2023-04-01T14:14:14;18.00;;;13.50;;
46322;SDS011;32044;52.386;13.278;2023-04-01T14:16:54;15.35;;;12.35;;
46322;SDS011;32044;52.386;13.278;2023-04-01T14:19:33;16.77;;;13.05;;
46322;SDS011;32044;52.386;13.278;2023-04-01T14:22:10;17.55;;;13.68;;
46322;SDS011;32044;52.386;13.278;2023-04-01T14:24:58;17.58;;;12.65;;
46322;SDS011;32044;52.386;13.278;2023-04-01T14:27:45;17.88;;;12.23;;
46322;SDS011;32044;52.386;13.278;2023-04-01T14:30:27;14.98;;;11.32;;
46322;SDS011;32044;52.386;13.278;2023-04-01T14:33:05;17.02;;;12.05;;
46322;SDS011;32044;52.386;13.278;2023-04-01T14:35:46;19.02;;;12.43;;
46322;SDS011;32044;52.386;13.278;2023-04-01T14:38:22;22.10;;;14.40;;
46322;SDS011;32044;52.386;13.278;2023-04-01T14:41:00;18.17;;;13.00;;
46322;SDS011;32044;52.386;13.278;2023-04-01T14:43:46;19.17;;;13.45;;
46322;SDS011;32044;52.386;13.278;2023-04-01T14:46:27;15.10;;;11.73;;
46322;SDS011;32044;52.386;13.278;2023-04-01T14:49:02;21.33;;;14.32;;
46322;SDS011;32044;52.386;13.278;2023-04-01T14:51:33;16.88;;;11.50;;
46322;SDS011;32044;52.386;13.278;2023-04-01T14:56:35;18.80;;;13.27;;
46322;SDS011;32044;52.386;13.278;2023-04-01T15:01:34;23.02;;;17.55;;
46322;SDS011;32044;52.386;13.278;2023-04-01T15:04:28;20.92;;;16.77;;
46322;SDS011;32044;52.386;13.278;2023-04-01T15:07:18;22.02;;;16.73;;
46322;SDS011;32044;52.386;13.278;2023-04-01T15:09:51;30.80;;;20.38;;
46322;SDS011;32044;52.386;13.278;2023-04-01T15:15:02;19.85;;;15.07;;
46322;SDS011;32044;52.386;13.278;2023-04-01T15:17:43;19.98;;;16.20;;
46322;SDS011;32044;52.386;13.278;2023-04-01T15:20:24;24.02;;;18.23;;
46322;SDS011;32044;52.386;13.278;2023-04-01T15:23:09;21.50;;;15.75;;
46322;SDS011;32044;52.386;13.278;2023-04-01T15:25:47;22.00;;;14.50;;
46322;SDS011;32044;52.386;13.278;2023-04-01T15:28:21;16.42;;;11.65;;
46322;SDS011;32044;52.386;13.278;2023-04-01T15:30:54;14.77;;;11.32;;
46322;SDS011;32044;52.386;13.278;2023-04-01T15:33:27;17.73;;;11.45;;
46322;SDS011;32044;52.386;13.278;2023-04-01T15:36:09;17.30;;;11.27;;
46322;SDS011;32044;52.386;13.278;2023-04-01T15:38:46;14.07;;;11.20;;
46322;SDS011;32044;52.386;13.278;2023-04-01T15:41:16;23.85;;;17.13;;
46322;SDS011;32044;52.386;13.278;2023-04-01T15:43:48;24.88;;;17.02;;
46322;SDS011;32044;52.386;13.278;2023-04-01T15:46:24;20.40;;;15.18;;
46322;SDS011;32044;52.386;13.278;2023-04-01T15:49:15;20.10;;;14.30;;
46322;SDS011;32044;52.386;13.278;2023-04-01T15:51:54;15.05;;;11.43;;
46322;SDS011;32044;52.386;13.278;2023-04-01T15:54:36;16.05;;;11.35;;
46322;SDS011;32044;52.386;13.278;2023-04-01T15:57:15;17.30;;;13.52;;
46322;SDS011;32044;52.386;13.278;2023-04-01T15:59:58;17.98;;;13.55;;
46322;SDS011;32044;52.386;13.278;2023-04-01T16:02:43;26.67;;;17.13;;
46322;SDS011;32044;52.386;13.278;2023-04-01T16:05:24;31.63;;;20.48;;
46322;SDS011;32044;52.386;13.278;2023-04-01T16:07:57;26.38;;;19.13;;
46322;SDS011;32044;52.386;13.278;2023-04-01T16:10:51;24.58;;;18.48;;
46322;SDS011;32044;52.386;13.278;2023-04-01T16:13:28;30.70;;;21.83;;
46322;SDS011;32044;52.386;13.278;2023-04-01T16:16:04;39.78;;;26.30;;
46322;SDS011;32044;52.386;13.278;2023-04-01T16:18:42;34.60;;;22.95;;
46322;SDS011;32044;52.386;13.278;2023-04-01T16:21:21;26.48;;;18.35;;
46322;SDS011;32044;52.386;13.278;2023-04-01T16:23:55;20.63;;;16.88;;
46322;SDS011;32044;52.386;13.278;2023-04-01T16:26:26;19.63;;;12.05;;
46322;SDS011;32044;52.386;13.278;2023-04-01T16:28:57;18.77;;;12.68;;
46322;SDS011;32044;52.386;13.278;2023-04-01T16:31:32;18.27;;;12.07;;